Time;durP1;ratioP1;P1;durP2;ratioP2;P2;SDS_P1;SDS_P2;PMS_P1;PMS_P2;Temp;Humidity;BMP_temperature;BMP_pressure;BME280_temperature;BME280_humidity;BME280_pressure;Samples;Min_cycle;Max_cycle;Signal;HPM_P1;HPM_P2
2021/10/07 00:00:41;;;;;;;;;;;;;;;13.22;68.71;101036.00;1600000;88;21200;-79
2021/10/07 00:03:06;;;;;;;;;;;;;;;13.22;68.32;101040.45;1598032;88;20163;-78
2021/10/07 00:05:32;;;;;;;;;;;;;;;13.19;68.10;101036.30;1574886;89;20164;-79
2021/10/07 00:07:57;;;;;;;;;;;;;;;13.18;68.05;101039.93;1574225;90;20514;-79
2021/10/07 00:10:23;;;;;;;;;;;;;;;13.17;68.12;101040.91;1574067;90;20185;-78
2021/10/07 00:12:48;;;;;;;;;;;;;;;13.19;67.82;101040.75;1581026;90;21073;-76
2021/10/07 00:15:14;;;;;;;;;;;;;;;13.12;67.67;101040.53;1577055;90;20196;-79
2021/10/07 00:17:39;;;;;;;;;;;;;;;13.02;67.76;101038.43;1577353;90;20176;-78
2021/10/07 00:20:06;;;;;;;;;;;;;;;13.10;67.62;101039.86;1570775;90;20173;-78
2021/10/07 00:22:32;;;;;;;;;;;;;;;13.11;67.46;101044.16;1574857;90;20164;-84
2021/10/07 00:24:57;;;;;;;;;;;;;;;13.07;67.23;101042.81;1571238;90;21249;-77
2021/10/07 00:27:23;;;;;;;;;;;;;;;12.99;67.31;101037.41;1572456;90;20994;-77
2021/10/07 00:29:51;;;;;;;;;;;;;;;13.01;67.26;101039.44;1575444;90;20234;-80
2021/10/07 00:32:25;;;;;;;;;;;;;;;13.04;67.29;101037.81;1572771;90;20393;-76
2021/10/07 00:40:06;;;;;;;;;;;;;;;12.89;67.46;101046.25;1571619;90;20120;-77
2021/10/07 00:42:32;;;;;;;;;;;;;;;12.91;67.12;101043.45;1580553;90;20313;-77
2021/10/07 00:44:57;;;;;;;;;;;;;;;12.87;66.72;101050.88;1571670;90;21240;-78
2021/10/07 00:47:23;;;;;;;;;;;;;;;12.83;66.66;101051.33;1576721;89;20156;-78
2021/10/07 00:49:48;;;;;;;;;;;;;;;12.81;66.44;101046.17;1576256;90;21108;-78
2021/10/07 00:52:17;;;;;;;;;;;;;;;12.81;66.53;101051.98;1572170;90;20534;-86
2021/10/07 00:54:44;;;;;;;;;;;;;;;12.79;66.60;101053.45;1573489;90;20447;-78
2021/10/07 00:57:10;;;;;;;;;;;;;;;12.77;66.18;101047.47;1584956;90;20235;-78
2021/10/07 00:59:35;;;;;;;;;;;;;;;12.74;65.93;101051.25;1570325;90;20196;-80
2021/10/07 01:02:08;;;;;;;;;;;;;;;12.77;65.84;101055.42;1578432;90;22276;-77
2021/10/07 01:04:34;;;;;;;;;;;;;;;12.73;65.72;101054.05;1574770;90;20464;-77
2021/10/07 01:06:59;;;;;;;;;;;;;;;12.74;65.65;101053.08;1574870;89;20215;-76
2021/10/07 01:09:25;;;;;;;;;;;;;;;12.75;65.42;101052.07;1572527;90;20183;-77
2021/10/07 01:11:51;;;;;;;;;;;;;;;12.74;65.12;101049.09;1578817;90;20270;-76
2021/10/07 01:14:43;;;;;;;;;;;;;;;12.77;64.85;101052.77;1572972;90;21102;-84
2021/10/07 01:17:04;;;;;;;;;;;;;;;12.73;64.81;101054.05;1576922;89;20640;-77
2021/10/07 01:19:30;;;;;;;;;;;;;;;12.76;64.66;101055.08;1563699;90;20176;-77
2021/10/07 01:21:57;;;;;;;;;;;;;;;12.75;64.38;101054.72;1578210;90;20309;-78
2021/10/07 01:24:24;;;;;;;;;;;;;;;12.78;64.01;101054.42;1581276;90;20244;-78
2021/10/07 01:26:49;;;;;;;;;;;;;;;12.78;64.05;101057.07;1576529;90;21921;-80
2021/10/07 01:29:15;;;;;;;;;;;;;;;12.72;63.71;101053.22;1572278;90;20144;-76
2021/10/07 01:31:40;;;;;;;;;;;;;;;12.68;63.68;101053.66;1578388;90;20160;-78
2021/10/07 01:34:06;;;;;;;;;;;;;;;12.72;63.77;101050.57;1580169;90;20152;-85
2021/10/07 01:36:31;;;;;;;;;;;;;;;12.74;63.53;101054.39;1586267;90;20506;-84
2021/10/07 01:38:57;;;;;;;;;;;;;;;12.71;63.38;101050.72;1572758;90;21216;-78
2021/10/07 01:41:22;;;;;;;;;;;;;;;12.62;63.25;101051.60;1577112;90;20255;-77
2021/10/07 01:43:56;;;;;;;;;;;;;;;12.72;63.19;101055.02;1570644;90;20490;-77
2021/10/07 01:46:21;;;;;;;;;;;;;;;12.68;62.96;101059.78;1580595;90;20213;-77
2021/10/07 01:48:47;;;;;;;;;;;;;;;12.64;63.27;101069.50;1574371;89;20181;-77
2021/10/07 01:51:13;;;;;;;;;;;;;;;12.63;63.12;101058.55;1571526;90;21908;-80
2021/10/07 01:53:38;;;;;;;;;;;;;;;12.66;63.24;101062.23;1584490;90;20171;-78
2021/10/07 01:56:05;;;;;;;;;;;;;;;12.62;63.19;101068.33;1581411;90;20482;-78
2021/10/07 01:58:30;;;;;;;;;;;;;;;12.66;63.16;101074.16;1572407;90;20193;-79
2021/10/07 02:00:56;;;;;;;;;;;;;;;12.65;63.10;101072.50;1571492;90;20156;-77
2021/10/07 02:03:21;;;;;;;;;;;;;;;12.67;63.00;101071.36;1572013;90;22329;-77
2021/10/07 02:05:47;;;;;;;;;;;;;;;12.67;63.09;101075.83;1577762;90;20146;-78
2021/10/07 02:08:13;;;;;;;;;;;;;;;12.69;63.15;101076.51;1566599;90;20181;-78
2021/10/07 02:10:38;;;;;;;;;;;;;;;12.68;62.86;101077.52;1567949;90;20605;-84
2021/10/07 02:13:04;;;;;;;;;;;;;;;12.65;62.97;101077.80;1573387;90;20180;-79
2021/10/07 02:15:29;;;;;;;;;;;;;;;12.60;62.72;101084.02;1574736;90;21092;-80
2021/10/07 02:17:55;;;;;;;;;;;;;;;12.59;62.72;101083.69;1566210;90;20336;-85
2021/10/07 02:20:20;;;;;;;;;;;;;;;12.54;62.62;101090.25;1568451;90;20176;-82
2021/10/07 02:22:46;;;;;;;;;;;;;;;12.52;62.61;101086.92;1563963;90;20492;-77
2021/10/07 02:25:12;;;;;;;;;;;;;;;12.49;62.64;101089.86;1567134;90;20163;-77
2021/10/07 02:27:37;;;;;;;;;;;;;;;12.51;62.68;101082.59;1564816;90;21258;-77
2021/10/07 02:30:08;;;;;;;;;;;;;;;12.43;62.42;101087.80;1574325;90;20166;-77
2021/10/07 02:32:34;;;;;;;;;;;;;;;12.43;62.66;101086.94;1577775;90;20166;-77
2021/10/07 02:34:59;;;;;;;;;;;;;;;12.39;62.65;101087.23;1566982;90;20528;-76
2021/10/07 02:37:25;;;;;;;;;;;;;;;12.35;62.87;101098.25;1570445;90;20152;-79
2021/10/07 02:39:50;;;;;;;;;;;;;;;12.40;62.85;101096.03;1562711;90;21257;-78
2021/10/07 02:42:16;;;;;;;;;;;;;;;12.29;62.79;101096.19;1565964;90;20178;-83
2021/10/07 02:44:41;;;;;;;;;;;;;;;12.26;62.92;101101.30;1566770;90;20144;-78
2021/10/07 02:47:07;;;;;;;;;;;;;;;12.24;62.89;101105.06;1561991;90;20156;-80
2021/10/07 02:49:32;;;;;;;;;;;;;;;12.29;63.00;101104.13;1571885;90;20152;-80
2021/10/07 02:51:58;;;;;;;;;;;;;;;12.25;62.62;101110.71;1567799;90;21113;-79
2021/10/07 02:54:24;;;;;;;;;;;;;;;12.26;62.68;101112.36;1567546;90;20167;-78
2021/10/07 02:56:49;;;;;;;;;;;;;;;12.27;62.56;101118.02;1561141;90;20153;-76
2021/10/07 02:59:15;;;;;;;;;;;;;;;12.33;62.64;101110.81;1574811;90;20491;-77
2021/10/07 03:01:40;;;;;;;;;;;;;;;12.35;62.30;101118.13;1572255;90;20138;-77
2021/10/07 03:04:06;;;;;;;;;;;;;;;12.31;62.26;101120.73;1567794;90;21132;-79
2021/10/07 03:06:32;;;;;;;;;;;;;;;12.34;62.23;101120.45;1597163;89;20273;-78
2021/10/07 03:08:58;;;;;;;;;;;;;;;12.30;61.94;101127.00;1599244;88;20194;-77
2021/10/07 03:11:24;;;;;;;;;;;;;;;12.31;62.01;101122.05;1599218;88;20559;-77
2021/10/07 03:13:50;;;;;;;;;;;;;;;12.29;61.90;101129.29;1598918;88;20212;-77
2021/10/07 03:16:15;;;;;;;;;;;;;;;12.28;61.89;101128.96;1599912;88;21114;-80
2021/10/07 03:18:41;;;;;;;;;;;;;;;12.27;61.91;101129.93;1597870;88;20171;-77
2021/10/07 03:21:06;;;;;;;;;;;;;;;12.16;61.69;101134.41;1597245;89;20218;-76
2021/10/07 03:23:32;;;;;;;;;;;;;;;12.15;61.76;101132.75;1598897;89;20463;-84
2021/10/07 03:25:58;;;;;;;;;;;;;;;12.11;61.51;101140.62;1600692;88;20263;-78
2021/10/07 03:28:23;;;;;;;;;;;;;;;12.00;61.69;101142.11;1599743;88;21251;-79
2021/10/07 03:30:49;;;;;;;;;;;;;;;12.05;61.70;101142.51;1598911;89;20145;-78
2021/10/07 03:33:14;;;;;;;;;;;;;;;12.06;61.71;101139.36;1599612;88;20224;-77
2021/10/07 03:35:40;;;;;;;;;;;;;;;12.01;61.63;101139.32;1599809;88;20456;-78
2021/10/07 03:38:06;;;;;;;;;;;;;;;12.02;61.65;101137.50;1600601;89;20165;-77
2021/10/07 03:40:31;;;;;;;;;;;;;;;11.83;61.26;101143.62;1599125;88;20510;-78
2021/10/07 03:42:58;;;;;;;;;;;;;;;11.86;61.45;101149.45;1598489;88;21535;-77
2021/10/07 03:45:24;;;;;;;;;;;;;;;11.79;61.58;101151.02;1600128;89;20260;-78
2021/10/07 03:47:49;;;;;;;;;;;;;;;11.81;61.81;101153.52;1599012;88;20475;-79
2021/10/07 03:50:15;;;;;;;;;;;;;;;11.83;61.71;101157.67;1598292;88;20139;-85
2021/10/07 03:52:40;;;;;;;;;;;;;;;11.71;61.76;101161.44;1599547;89;21242;-80
2021/10/07 03:55:06;;;;;;;;;;;;;;;11.63;61.62;101164.77;1599320;88;20278;-78
2021/10/07 03:57:32;;;;;;;;;;;;;;;11.65;61.72;101164.16;1600393;89;20201;-78
2021/10/07 03:59:57;;;;;;;;;;;;;;;11.65;61.73;101173.89;1600304;88;20535;-77
2021/10/07 04:02:23;;;;;;;;;;;;;;;11.63;61.81;101174.03;1599069;88;20138;-79
2021/10/07 04:04:48;;;;;;;;;;;;;;;11.62;61.79;101180.78;1599744;88;21108;-77
2021/10/07 04:07:14;;;;;;;;;;;;;;;11.69;61.77;101184.55;1601074;88;20261;-80
2021/10/07 04:09:40;;;;;;;;;;;;;;;11.68;61.75;101182.87;1599169;89;20150;-77
2021/10/07 04:12:06;;;;;;;;;;;;;;;11.64;61.77;101187.62;1600969;88;20172;-77
2021/10/07 04:14:32;;;;;;;;;;;;;;;11.61;61.98;101189.22;1600193;89;20161;-77
2021/10/07 04:16:57;;;;;;;;;;;;;;;11.65;62.04;101189.77;1600663;89;21864;-77
2021/10/07 04:19:23;;;;;;;;;;;;;;;11.62;61.97;101186.07;1600140;89;20174;-77
2021/10/07 04:21:49;;;;;;;;;;;;;;;11.59;61.94;101185.87;1599629;89;20189;-77
2021/10/07 04:24:14;;;;;;;;;;;;;;;11.58;61.91;101188.16;1600403;89;20155;-77
2021/10/07 04:26:40;;;;;;;;;;;;;;;11.53;61.91;101194.36;1598115;89;20950;-77
2021/10/07 04:29:06;;;;;;;;;;;;;;;11.41;62.07;101196.27;1599903;89;21259;-77
2021/10/07 04:31:31;;;;;;;;;;;;;;;11.43;61.92;101202.25;1599254;88;20240;-81
2021/10/07 04:33:57;;;;;;;;;;;;;;;11.47;61.95;101210.28;1600412;88;20769;-78
2021/10/07 04:36:22;;;;;;;;;;;;;;;11.48;61.86;101210.64;1600180;89;20146;-77
2021/10/07 04:38:48;;;;;;;;;;;;;;;11.45;61.84;101213.55;1598613;88;20170;-79
2021/10/07 04:41:15;;;;;;;;;;;;;;;11.40;61.65;101217.07;1599819;88;21160;-77
2021/10/07 04:43:40;;;;;;;;;;;;;;;11.31;61.95;101225.34;1600205;89;20195;-77
2021/10/07 04:46:06;;;;;;;;;;;;;;;11.42;61.80;101231.02;1600194;88;20207;-80
2021/10/07 04:48:31;;;;;;;;;;;;;;;11.39;61.86;101227.32;1597566;88;20291;-79
2021/10/07 04:50:57;;;;;;;;;;;;;;;11.35;61.70;101223.76;1597755;89;20473;-78
2021/10/07 04:53:23;;;;;;;;;;;;;;;11.33;61.72;101231.83;1599682;88;21895;-79
2021/10/07 04:55:54;;;;;;;;;;;;;;;11.30;61.54;101229.45;1598497;89;20163;-79
2021/10/07 04:58:17;;;;;;;;;;;;;;;11.26;61.33;101237.28;1596410;88;20187;-77
2021/10/07 05:00:43;;;;;;;;;;;;;;;11.11;61.36;101244.27;1596549;88;20680;-86
2021/10/07 05:03:09;;;;;;;;;;;;;;;11.08;61.28;101252.46;1598385;88;20200;-86
2021/10/07 05:05:34;;;;;;;;;;;;;;;11.11;61.40;101267.23;1597071;88;21084;-79
2021/10/07 05:08:00;;;;;;;;;;;;;;;11.08;61.50;101263.53;1593502;88;20158;-77
2021/10/07 05:10:25;;;;;;;;;;;;;;;10.93;61.54;101268.31;1593720;88;20450;-81
2021/10/07 05:12:51;;;;;;;;;;;;;;;10.94;61.85;101270.83;1595567;88;20540;-78
2021/10/07 05:15:16;;;;;;;;;;;;;;;10.98;61.80;101281.14;1597393;88;20150;-84
2021/10/07 05:17:42;;;;;;;;;;;;;;;10.94;61.80;101276.61;1599344;88;21103;-80
2021/10/07 05:20:09;;;;;;;;;;;;;;;10.81;62.03;101274.64;1596567;89;20187;-83
2021/10/07 05:22:35;;;;;;;;;;;;;;;10.78;62.15;101271.30;1594816;88;20514;-78
2021/10/07 05:25:00;;;;;;;;;;;;;;;10.74;62.25;101275.16;1594983;88;20191;-78
2021/10/07 05:27:26;;;;;;;;;;;;;;;10.72;62.35;101277.10;1595592;89;20188;-78
2021/10/07 05:29:52;;;;;;;;;;;;;;;10.65;62.34;101291.78;1594814;88;21146;-86
2021/10/07 05:32:17;;;;;;;;;;;;;;;10.65;62.73;101290.45;1594097;88;20227;-80
2021/10/07 05:34:43;;;;;;;;;;;;;;;10.60;62.72;101288.70;1594005;88;20183;-80
2021/10/07 05:37:08;;;;;;;;;;;;;;;10.51;62.71;101282.86;1594881;88;20894;-84
2021/10/07 05:39:34;;;;;;;;;;;;;;;10.51;63.08;101299.53;1594717;88;20172;-78
2021/10/07 05:41:59;;;;;;;;;;;;;;;10.46;63.17;101299.58;1595636;89;21106;-78
2021/10/07 05:44:25;;;;;;;;;;;;;;;10.46;62.96;101306.18;1593716;88;20179;-84
2021/10/07 05:46:50;;;;;;;;;;;;;;;10.44;62.88;101306.30;1594183;88;20179;-78
2021/10/07 05:49:16;;;;;;;;;;;;;;;10.48;63.28;101308.20;1592952;88;20528;-83
2021/10/07 05:51:42;;;;;;;;;;;;;;;10.43;63.17;101307.75;1593832;88;20899;-84
2021/10/07 05:54:08;;;;;;;;;;;;;;;10.41;63.05;101310.02;1593810;88;22487;-89
2021/10/07 05:56:33;;;;;;;;;;;;;;;10.46;63.05;101315.42;1593171;88;20212;-80
2021/10/07 05:58:59;;;;;;;;;;;;;;;10.53;62.98;101320.53;1593678;88;20188;-79
2021/10/07 06:01:24;;;;;;;;;;;;;;;10.45;63.25;101317.70;1592660;88;20163;-84
2021/10/07 06:03:50;;;;;;;;;;;;;;;10.44;63.13;101319.51;1593156;89;20202;-85
2021/10/07 06:06:16;;;;;;;;;;;;;;;10.52;63.17;101322.84;1595182;88;21141;-87
2021/10/07 06:08:41;;;;;;;;;;;;;;;10.54;62.98;101329.66;1591332;88;20205;-78
2021/10/07 06:11:07;;;;;;;;;;;;;;;10.60;62.93;101323.03;1593500;89;20184;-78
2021/10/07 06:13:32;;;;;;;;;;;;;;;10.63;62.80;101332.02;1590918;88;20163;-81
2021/10/07 06:15:58;;;;;;;;;;;;;;;10.71;62.91;101331.39;1592053;89;20515;-78
2021/10/07 06:18:24;;;;;;;;;;;;;;;10.66;62.76;101329.59;1592301;88;21218;-78
2021/10/07 06:20:50;;;;;;;;;;;;;;;10.75;62.63;101331.47;1593411;88;21046;-79
2021/10/07 06:23:16;;;;;;;;;;;;;;;10.77;62.35;101328.23;1593667;89;20182;-82
2021/10/07 06:25:41;;;;;;;;;;;;;;;10.86;62.35;101331.89;1593897;88;20539;-79
2021/10/07 06:28:07;;;;;;;;;;;;;;;10.86;62.17;101326.60;1591918;88;20134;-82
2021/10/07 06:30:33;;;;;;;;;;;;;;;11.06;62.01;101350.89;1593649;88;22234;-77
2021/10/07 06:32:58;;;;;;;;;;;;;;;11.09;61.83;101341.38;1592854;88;20146;-79
2021/10/07 06:35:24;;;;;;;;;;;;;;;11.18;61.60;101346.84;1593642;88;20146;-79
2021/10/07 06:37:50;;;;;;;;;;;;;;;11.28;61.47;101345.11;1593546;88;20976;-78
2021/10/07 06:40:16;;;;;;;;;;;;;;;11.34;61.10;101351.16;1593270;88;20130;-79
2021/10/07 06:42:41;;;;;;;;;;;;;;;11.38;60.89;101356.55;1593248;89;21231;-78
2021/10/07 06:45:08;;;;;;;;;;;;;;;11.37;60.81;101350.90;1594368;88;20252;-80
2021/10/07 06:47:33;;;;;;;;;;;;;;;11.35;60.63;101362.11;1592370;89;20219;-79
2021/10/07 06:50:00;;;;;;;;;;;;;;;11.35;60.45;101356.81;1573611;88;20245;-80
2021/10/07 06:52:26;;;;;;;;;;;;;;;11.42;60.51;101362.41;1594341;88;20155;-77
2021/10/07 06:54:52;;;;;;;;;;;;;;;11.44;60.50;101367.92;1594037;89;21942;-78
2021/10/07 06:57:17;;;;;;;;;;;;;;;11.42;60.31;101369.88;1593217;88;20166;-79
2021/10/07 06:59:43;;;;;;;;;;;;;;;11.42;60.22;101376.48;1594029;88;20189;-81
2021/10/07 07:02:08;;;;;;;;;;;;;;;11.38;60.32;101379.53;1588998;89;20478;-79
2021/10/07 07:04:34;;;;;;;;;;;;;;;11.33;60.49;101379.92;1592195;88;20150;-79
2021/10/07 07:06:59;;;;;;;;;;;;;;;11.35;60.57;101385.91;1590991;88;21137;-85
2021/10/07 07:09:25;;;;;;;;;;;;;;;11.41;60.19;101386.70;1593626;88;20191;-81
2021/10/07 07:11:51;;;;;;;;;;;;;;;11.44;59.96;101386.44;1591614;88;20142;-86
2021/10/07 07:14:17;;;;;;;;;;;;;;;11.56;59.96;101390.31;1593346;89;20364;-80
2021/10/07 07:16:43;;;;;;;;;;;;;;;11.44;59.51;101386.44;1593306;88;20206;-79
2021/10/07 07:19:09;;;;;;;;;;;;;;;11.48;59.39;101390.52;1593827;89;21101;-83
2021/10/07 07:21:34;;;;;;;;;;;;;;;11.63;59.65;101392.30;1593624;89;20209;-81
2021/10/07 07:24:00;;;;;;;;;;;;;;;11.60;59.53;101392.57;1593495;88;20173;-80
2021/10/07 07:26:27;;;;;;;;;;;;;;;11.74;59.35;101398.48;1594327;88;20280;-87
2021/10/07 07:28:53;;;;;;;;;;;;;;;11.80;59.43;101405.41;1589813;88;20249;-81
2021/10/07 07:31:18;;;;;;;;;;;;;;;11.74;59.00;101396.67;1593020;88;22163;-79
2021/10/07 07:33:46;;;;;;;;;;;;;;;11.85;58.66;101398.38;1591422;89;20127;-82
2021/10/07 07:36:13;;;;;;;;;;;;;;;11.89;58.68;101398.98;1591340;88;20536;-81
2021/10/07 07:38:39;;;;;;;;;;;;;;;12.00;58.71;101402.38;1592607;89;20108;-81
2021/10/07 07:41:04;;;;;;;;;;;;;;;11.99;58.51;101402.51;1592590;88;20146;-83
2021/10/07 07:43:30;;;;;;;;;;;;;;;12.02;58.24;101402.23;1593777;88;21272;-82
2021/10/07 07:45:56;;;;;;;;;;;;;;;12.06;58.14;101398.36;1593077;89;20194;-79
2021/10/07 07:48:22;;;;;;;;;;;;;;;12.03;57.91;101403.92;1593961;88;20112;-83
2021/10/07 07:50:48;;;;;;;;;;;;;;;12.02;58.02;101407.53;1592096;88;20259;-81
2021/10/07 07:53:13;;;;;;;;;;;;;;;12.03;57.80;101403.92;1594337;88;20732;-80
2021/10/07 07:55:39;;;;;;;;;;;;;;;12.08;57.97;101404.34;1593043;88;21143;-88
2021/10/07 07:58:05;;;;;;;;;;;;;;;12.21;58.27;101404.95;1593646;89;20300;-80
2021/10/07 08:00:30;;;;;;;;;;;;;;;12.28;57.92;101399.94;1588724;89;20542;-80
2021/10/07 08:02:56;;;;;;;;;;;;;;;12.41;57.86;101409.44;1594052;89;20166;-81
2021/10/07 08:05:21;;;;;;;;;;;;;;;12.60;57.69;101405.97;1592816;88;20162;-81
2021/10/07 08:07:47;;;;;;;;;;;;;;;12.68;57.18;101409.61;1582075;89;21124;-79
2021/10/07 08:10:13;;;;;;;;;;;;;;;12.77;57.15;101413.25;1571420;90;20173;-82
2021/10/07 08:12:38;;;;;;;;;;;;;;;12.86;56.94;101411.06;1569169;89;20208;-82
2021/10/07 08:15:06;;;;;;;;;;;;;;;12.95;56.70;101409.89;1570907;90;20548;-80
2021/10/07 08:17:31;;;;;;;;;;;;;;;13.01;56.29;101411.98;1575941;90;20156;-81
2021/10/07 08:19:57;;;;;;;;;;;;;;;12.98;56.44;101416.23;1576988;90;21205;-80
2021/10/07 08:22:23;;;;;;;;;;;;;;;13.07;56.07;101412.25;1578172;90;20183;-82
2021/10/07 08:24:49;;;;;;;;;;;;;;;13.12;55.86;101422.43;1573211;90;20149;-84
2021/10/07 08:27:15;;;;;;;;;;;;;;;13.17;56.11;101406.09;1570835;90;20491;-81
2021/10/07 08:29:41;;;;;;;;;;;;;;;13.22;56.02;101415.78;1574524;90;20240;-82
2021/10/07 08:32:07;;;;;;;;;;;;;;;13.21;56.04;101416.78;1575414;90;21245;-84
2021/10/07 08:34:33;;;;;;;;;;;;;;;13.24;55.81;101413.34;1572326;90;20250;-80
2021/10/07 08:36:58;;;;;;;;;;;;;;;13.33;55.59;101418.76;1579110;90;20546;-80
2021/10/07 08:39:25;;;;;;;;;;;;;;;13.31;55.57;101420.73;1570409;90;20459;-83
2021/10/07 08:41:51;;;;;;;;;;;;;;;13.28;55.15;101421.38;1573675;90;20196;-81
2021/10/07 08:44:17;;;;;;;;;;;;;;;13.28;55.41;101419.19;1576298;90;21198;-84
2021/10/07 08:46:49;;;;;;;;;;;;;;;13.42;55.60;101425.89;1571578;90;20207;-90
2021/10/07 08:49:16;;;;;;;;;;;;;;;13.51;55.77;101429.02;1569072;89;20257;-79
2021/10/07 08:51:42;;;;;;;;;;;;;;;13.60;55.50;101429.48;1573562;90;20228;-85
2021/10/07 08:54:08;;;;;;;;;;;;;;;13.67;55.41;101432.88;1574656;89;20294;-78
2021/10/07 08:56:33;;;;;;;;;;;;;;;13.78;55.30;101427.38;1574798;90;22421;-81
2021/10/07 08:59:02;;;;;;;;;;;;;;;13.87;55.24;101419.87;1574071;89;20176;-77
2021/10/07 09:01:39;;;;;;;;;;;;;;;14.00;55.46;101427.02;1574947;90;20341;-79
2021/10/07 09:04:25;;;;;;;;;;;;;;;14.07;55.18;101427.77;1573241;90;20223;-80
2021/10/07 09:06:58;;;;;;;;;;;;;;;14.04;54.93;101423.57;1574198;89;20202;-82
2021/10/07 09:09:24;;;;;;;;;;;;;;;14.05;54.38;101425.75;1571301;89;21946;-79
2021/10/07 09:11:51;;;;;;;;;;;;;;;14.15;54.48;101415.89;1573100;90;20255;-79
2021/10/07 09:14:18;;;;;;;;;;;;;;;14.20;54.13;101418.97;1572396;90;20180;-80
2021/10/07 09:16:48;;;;;;;;;;;;;;;14.21;53.90;101413.97;1559625;90;20206;-79
2021/10/07 09:19:27;;;;;;;;;;;;;;;14.28;53.92;101419.05;1575064;89;20625;-84
2021/10/07 09:21:55;;;;;;;;;;;;;;;14.32;53.85;101416.41;1572222;90;22681;-80
2021/10/07 09:24:38;;;;;;;;;;;;;;;14.41;54.08;101423.16;1570962;90;20192;-79
2021/10/07 09:27:10;;;;;;;;;;;;;;;14.57;53.87;101419.33;1570939;90;20214;-79
2021/10/07 09:29:38;;;;;;;;;;;;;;;14.54;53.51;101415.64;1573574;90;20233;-85
2021/10/07 09:32:05;;;;;;;;;;;;;;;14.73;53.47;101412.05;1573240;90;20165;-79
2021/10/07 09:34:42;;;;;;;;;;;;;;;14.84;53.49;101413.14;1573736;90;21340;-78
2021/10/07 09:37:31;;;;;;;;;;;;;;;14.91;53.26;101414.69;1574038;90;20193;-79
2021/10/07 09:40:14;;;;;;;;;;;;;;;14.88;52.79;101413.66;1574639;90;20231;-81
2021/10/07 09:42:42;;;;;;;;;;;;;;;14.87;52.89;101417.33;1578357;90;20196;-82
2021/10/07 09:45:11;;;;;;;;;;;;;;;15.03;52.88;101428.09;1571525;90;20117;-82
2021/10/07 09:47:51;;;;;;;;;;;;;;;15.06;52.71;101423.79;1573022;90;21115;-81
2021/10/07 09:50:22;;;;;;;;;;;;;;;15.00;52.61;101436.38;1569458;90;20241;-81
2021/10/07 09:52:53;;;;;;;;;;;;;;;15.02;52.63;101430.43;1570229;90;20209;-82
2021/10/07 09:55:21;;;;;;;;;;;;;;;15.04;52.83;101427.11;1570853;90;20205;-83
2021/10/07 09:57:54;;;;;;;;;;;;;;;15.08;52.67;101428.45;1578379;90;20213;-79
2021/10/07 10:00:20;;;;;;;;;;;;;;;15.04;52.41;101425.78;1573456;90;22110;-82
2021/10/07 10:02:46;;;;;;;;;;;;;;;15.08;52.20;101431.11;1577109;90;20282;-80
2021/10/07 10:05:13;;;;;;;;;;;;;;;15.07;52.03;101424.61;1575463;90;20444;-82
2021/10/07 10:07:40;;;;;;;;;;;;;;;15.11;52.07;101428.65;1576096;89;20183;-80
2021/10/07 10:10:06;;;;;;;;;;;;;;;15.20;51.93;101422.91;1567018;90;20241;-79
2021/10/07 10:12:32;;;;;;;;;;;;;;;15.20;51.08;101426.90;1566821;89;22096;-82
2021/10/07 10:14:57;;;;;;;;;;;;;;;15.27;51.45;101435.91;1557757;90;20284;-79
2021/10/07 10:17:23;;;;;;;;;;;;;;;15.29;51.42;101439.27;1560893;90;20261;-80
2021/10/07 10:19:51;;;;;;;;;;;;;;;15.43;51.67;101437.37;1567170;90;20247;-79
2021/10/07 10:22:17;;;;;;;;;;;;;;;15.50;51.63;101432.75;1562062;90;20272;-83
2021/10/07 10:24:46;;;;;;;;;;;;;;;15.50;51.43;101439.41;1531028;90;40700;-77
2021/10/07 10:27:11;;;;;;;;;;;;;;;15.48;50.17;101446.72;1565478;90;20637;-78
2021/10/07 10:29:37;;;;;;;;;;;;;;;15.50;49.69;101434.08;1562282;90;20162;-79
2021/10/07 10:32:03;;;;;;;;;;;;;;;15.56;49.76;101436.11;1564112;90;20144;-79
2021/10/07 10:34:39;;;;;;;;;;;;;;;15.66;49.74;101435.52;1563577;90;20213;-79
2021/10/07 10:37:04;;;;;;;;;;;;;;;15.72;49.79;101437.55;1565372;90;21218;-82
2021/10/07 10:39:40;;;;;;;;;;;;;;;15.85;49.63;101433.63;1560164;90;20824;-79
2021/10/07 10:42:07;;;;;;;;;;;;;;;15.94;49.88;101430.00;1556995;90;21002;-81
2021/10/07 10:44:34;;;;;;;;;;;;;;;15.93;49.44;101421.69;1559217;90;20516;-80
2021/10/07 10:47:09;;;;;;;;;;;;;;;16.03;49.42;101431.70;1563486;90;20501;-89
2021/10/07 10:49:37;;;;;;;;;;;;;;;15.92;48.49;101429.34;1563214;90;21824;-86
2021/10/07 10:52:22;;;;;;;;;;;;;;;16.04;48.04;101426.73;1566579;90;20191;-80
2021/10/07 10:54:56;;;;;;;;;;;;;;;16.20;47.55;101425.12;1563838;90;20241;-85
2021/10/07 10:57:36;;;;;;;;;;;;;;;16.33;47.99;101428.16;1566658;90;20197;-81
2021/10/07 11:00:15;;;;;;;;;;;;;;;16.33;47.39;101428.16;1561066;90;20245;-79
2021/10/07 11:02:42;;;;;;;;;;;;;;;16.43;46.90;101416.84;1569570;90;21220;-81
2021/10/07 11:05:18;;;;;;;;;;;;;;;16.46;46.69;101415.18;1569709;90;20189;-78
2021/10/07 11:07:44;;;;;;;;;;;;;;;16.51;46.67;101414.69;1563880;89;20185;-79
2021/10/07 11:10:17;;;;;;;;;;;;;;;16.72;46.76;101416.90;1563604;90;20721;-82
2021/10/07 11:12:46;;;;;;;;;;;;;;;16.73;46.48;101423.87;1562458;90;20487;-80
2021/10/07 11:15:13;;;;;;;;;;;;;;;16.77;46.16;101415.89;1565112;90;21187;-80
2021/10/07 11:17:42;;;;;;;;;;;;;;;16.68;45.50;101426.22;1564328;90;20185;-84
2021/10/07 11:20:11;;;;;;;;;;;;;;;16.65;45.68;101421.21;1564378;90;20297;-79
2021/10/07 11:22:36;;;;;;;;;;;;;;;16.69;45.47;101419.89;1564265;90;20929;-80
2021/10/07 11:25:02;;;;;;;;;;;;;;;16.72;45.28;101413.37;1564491;90;20165;-80
2021/10/07 11:27:37;;;;;;;;;;;;;;;16.71;45.08;101414.39;1517912;91;21140;-81
2021/10/07 11:30:05;;;;;;;;;;;;;;;16.65;44.72;101422.03;1564981;90;20360;-85
2021/10/07 11:32:31;;;;;;;;;;;;;;;16.74;44.88;101418.89;1562817;91;20226;-79
2021/10/07 11:35:03;;;;;;;;;;;;;;;16.76;44.67;101416.87;1565205;90;20503;-80
2021/10/07 11:37:56;;;;;;;;;;;;;;;16.77;44.89;101422.56;1563170;90;20183;-81
2021/10/07 11:40:42;;;;;;;;;;;;;;;16.76;44.31;101414.21;1564296;90;22172;-79
2021/10/07 11:43:14;;;;;;;;;;;;;;;16.75;44.17;101417.91;1564410;90;20132;-79
2021/10/07 11:45:42;;;;;;;;;;;;;;;16.81;44.21;101413.23;1563977;90;20185;-80
2021/10/07 11:48:08;;;;;;;;;;;;;;;16.81;43.81;101418.57;1565243;91;20255;-77
2021/10/07 11:57:17;;;;;;;;;;;;;;;16.76;43.13;101412.87;1562142;91;20200;-78
2021/10/07 12:00:23;;;;;;;;;;;;;;;16.78;43.38;101421.57;1565704;91;20178;-78
2021/10/07 12:02:52;;;;;;;;;;;;;;;16.90;43.17;101415.93;1561700;91;20253;-79
2021/10/07 12:05:18;;;;;;;;;;;;;;;16.98;43.25;101418.59;1557317;91;20529;-78
2021/10/07 12:08:01;;;;;;;;;;;;;;;17.13;42.96;101424.92;1566350;88;21067;-85
2021/10/07 12:10:41;;;;;;;;;;;;;;;17.33;43.04;101425.91;1575198;90;20188;-78
2021/10/07 12:13:20;;;;;;;;;;;;;;;17.36;42.33;101429.58;1558348;90;20153;-78
2021/10/07 12:15:48;;;;;;;;;;;;;;;17.43;41.98;101433.22;1568088;90;20168;-77
2021/10/07 12:18:30;;;;;;;;;;;;;;;17.50;41.96;101428.88;1556818;91;20189;-77
2021/10/07 12:20:57;;;;;;;;;;;;;;;17.51;42.33;101429.22;1559578;90;21068;-77
2021/10/07 12:23:23;;;;;;;;;;;;;;;17.72;42.13;101434.50;1584607;90;20140;-76
2021/10/07 12:25:55;;;;;;;;;;;;;;;17.72;41.49;101431.31;1569063;90;20217;-77
2021/10/07 12:28:21;;;;;;;;;;;;;;;17.81;41.30;101430.80;1552774;91;20503;-78
2021/10/07 12:31:02;;;;;;;;;;;;;;;17.84;41.51;101438.47;1554656;90;20777;-77
2021/10/07 12:33:30;;;;;;;;;;;;;;;17.85;41.33;101441.48;1587154;90;22010;-77
2021/10/07 12:36:04;;;;;;;;;;;;;;;17.98;40.86;101444.14;1590355;90;20214;-77
2021/10/07 12:42:18;;;;;;;;;;;;;;;17.91;40.44;101447.51;1565685;91;20145;-77
2021/10/07 12:47:59;;;;;;;;;;;;;;;18.12;40.66;101432.71;1543454;91;20170;-78
2021/10/07 12:50:24;;;;;;;;;;;;;;;18.18;39.91;101440.52;1560215;90;20478;-78
2021/10/07 12:52:57;;;;;;;;;;;;;;;18.30;40.01;101433.29;1574902;90;20222;-78
2021/10/07 12:55:23;;;;;;;;;;;;;;;18.33;39.75;101437.95;1564731;90;20668;-78